Time;durP1;ratioP1;P1;durP2;ratioP2;P2;SDS_P1;SDS_P2;PMS_P1;PMS_P2;Temp;Humidity;BMP_temperature;BMP_pressure;BME280_temperature;BME280_humidity;BME280_pressure;Samples;Min_cycle;Max_cycle;Signal;HPM_P1;HPM_P2
2022/10/02 00:00:17;;;;;;;;;;;;;;;;;;5031644;28;19920;-56
2022/10/02 00:02:46;;;;;;;;;;;;;;;;;;5035712;28;20439;-56
2022/10/02 00:05:19;;;;;;;;;;;;;;;;;;5036036;28;19924;-57
2022/10/02 00:07:47;;;;;;;;;;;;;;;;;;5039431;28;19913;-58
2022/10/02 00:10:21;;;;;;;;;;;;;;;;;;5031591;28;19920;-58
2022/10/02 00:12:48;;;;;;;;;;;;;;;;;;5031404;28;19944;-58
2022/10/02 00:15:16;;;;;;;;;;;;;;;;;;5032028;28;19960;-59
2022/10/02 00:17:43;;;;;;;;;;;;;;;;;;5032019;28;19909;-59
2022/10/02 00:20:13;;;;;;;;;;;;;;;;;;5034420;28;19913;-59
2022/10/02 00:23:08;;;;;;;;;;;;;;;;;;5033268;28;19920;-58
2022/10/02 00:25:33;;;;;;;;;;;;;;;;;;5012958;28;19920;-58
2022/10/02 00:28:09;;;;;;;;;;;;;;;;;;5035013;28;19913;-58
2022/10/02 00:30:56;;;;;;;;;;;;;;;;;;5031602;28;19917;-57
2022/10/02 00:33:40;;;;;;;;;;;;;;;;;;5031867;28;19913;-58
2022/10/02 00:36:11;;;;;;;;;;;;;;;;;;5031465;28;19923;-58
2022/10/02 00:38:36;;;;;;;;;;;;;;;;;;5047811;28;19913;-58
2022/10/02 00:41:07;;;;;;;;;;;;;;;;;;5032801;28;19915;-58
2022/10/02 00:43:40;;;;;;;;;;;;;;;;;;5033902;28;19963;-58
2022/10/02 00:46:24;;;;;;;;;;;;;;;;;;5034315;28;20011;-58
2022/10/02 00:48:49;;;;;;;;;;;;;;;;;;5034217;28;20385;-58
2022/10/02 00:51:34;;;;;;;;;;;;;;;;;;5034763;28;19925;-58
2022/10/02 00:54:17;;;;;;;;;;;;;;;;;;5033376;28;19932;-57
2022/10/02 00:56:52;;;;;;;;;;;;;;;;;;5032172;28;19913;-58
2022/10/02 00:59:23;;;;;;;;;;;;;;;;;;5035304;28;19916;-57
2022/10/02 01:02:10;;;;;;;;;;;;;;;;;;5030835;28;20267;-58
2022/10/02 01:04:37;;;;;;;;;;;;;;;;;;5030645;28;20355;-58
2022/10/02 01:07:04;;;;;;;;;;;;;;;;;;5032255;28;19940;-57
2022/10/02 01:09:29;;;;;;;;;;;;;;;;;;5032557;28;19931;-58
2022/10/02 01:11:55;;;;;;;;;;;;;;;;;;5031076;28;19917;-58
2022/10/02 01:14:30;;;;;;;;;;;;;;;;;;5030205;28;19913;-58
2022/10/02 01:16:55;;;;;;;;;;;;;;;;;;5032340;28;19973;-58
2022/10/02 01:19:29;;;;;;;;;;;;;;;;;;5031844;28;19916;-57
2022/10/02 01:22:07;;;;;;;;;;;;;;;;;;5036854;28;19964;-58
2022/10/02 01:24:47;;;;;;;;;;;;;;;;;;5032759;28;19913;-57
2022/10/02 01:27:13;;;;;;;;;;;;;;;;;;5032484;28;19968;-57
2022/10/02 01:29:38;;;;;;;;;;;;;;;;;;5027634;28;19995;-57
2022/10/02 01:32:03;;;;;;;;;;;;;;;;;;5046836;28;19972;-58
2022/10/02 01:34:29;;;;;;;;;;;;;;;;;;5030140;28;19913;-58
2022/10/02 01:36:54;;;;;;;;;;;;;;;;;;5032208;28;19913;-57
2022/10/02 01:39:20;;;;;;;;;;;;;;;;;;5031602;28;20425;-57
2022/10/02 01:41:45;;;;;;;;;;;;;;;;;;5030997;28;19940;-57
2022/10/02 01:44:12;;;;;;;;;;;;;;;;;;5031958;28;19947;-57
2022/10/02 01:46:44;;;;;;;;;;;;;;;;;;5031691;28;19945;-57
2022/10/02 01:49:18;;;;;;;;;;;;;;;;;;5033525;28;19913;-57
2022/10/02 01:51:43;;;;;;;;;;;;;;;;;;5030676;28;20060;-57
2022/10/02 01:54:08;;;;;;;;;;;;;;;;;;5030429;28;20000;-57
2022/10/02 01:56:42;;;;;;;;;;;;;;;;;;5033008;28;20468;-57
2022/10/02 01:59:20;;;;;;;;;;;;;;;;;;5030897;28;19921;-57
2022/10/02 02:01:51;;;;;;;;;;;;;;;;;;5031510;28;19912;-58
2022/10/02 02:04:23;;;;;;;;;;;;;;;;;;5034655;28;19963;-57
2022/10/02 02:07:03;;;;;;;;;;;;;;;;;;5035033;28;19913;-57
2022/10/02 02:09:39;;;;;;;;;;;;;;;;;;5030099;28;20374;-57
2022/10/02 02:12:10;;;;;;;;;;;;;;;;;;5035474;28;19924;-57
2022/10/02 02:14:37;;;;;;;;;;;;;;;;;;5036151;28;19917;-57
2022/10/02 02:17:21;;;;;;;;;;;;;;;;;;5032077;28;19913;-57
2022/10/02 02:19:54;;;;;;;;;;;;;;;;;;5037085;28;19971;-57
2022/10/02 02:22:23;;;;;;;;;;;;;;;;;;5029401;28;20003;-57
2022/10/02 02:24:57;;;;;;;;;;;;;;;;;;5032360;28;19913;-58
2022/10/02 02:27:24;;;;;;;;;;;;;;;;;;5030207;28;19913;-56
2022/10/02 02:29:53;;;;;;;;;;;;;;;;;;5030207;28;20545;-57
2022/10/02 02:32:21;;;;;;;;;;;;;;;;;;5028015;28;19924;-58
2022/10/02 02:35:02;;;;;;;;;;;;;;;;;;5030699;28;19923;-58
2022/10/02 02:37:30;;;;;;;;;;;;;;;;;;5029977;28;19927;-56
2022/10/02 02:39:58;;;;;;;;;;;;;;;;;;5035531;28;19913;-58
2022/10/02 02:42:27;;;;;;;;;;;;;;;;;;5030897;28;20421;-57
2022/10/02 02:44:58;;;;;;;;;;;;;;;;;;5028952;28;20294;-56
2022/10/02 02:47:31;;;;;;;;;;;;;;;;;;5028156;28;19913;-58
2022/10/02 02:50:07;;;;;;;;;;;;;;;;;;5030761;28;19919;-58
2022/10/02 02:52:35;;;;;;;;;;;;;;;;;;5034212;28;19916;-58
2022/10/02 02:55:12;;;;;;;;;;;;;;;;;;5029160;28;20250;-58
2022/10/02 02:57:44;;;;;;;;;;;;;;;;;;5029671;28;19924;-57
2022/10/02 03:00:11;;;;;;;;;;;;;;;;;;5032111;28;19920;-58
2022/10/02 03:02:36;;;;;;;;;;;;;;;;;;5029809;28;20263;-58
2022/10/02 03:05:04;;;;;;;;;;;;;;;;;;5031137;28;19924;-57
2022/10/02 03:07:29;;;;;;;;;;;;;;;;;;5030628;28;19921;-57
2022/10/02 03:10:04;;;;;;;;;;;;;;;;;;5032749;28;20398;-58
2022/10/02 03:12:37;;;;;;;;;;;;;;;;;;5034728;28;19916;-57
2022/10/02 03:15:22;;;;;;;;;;;;;;;;;;5033206;28;19913;-58
2022/10/02 03:17:56;;;;;;;;;;;;;;;;;;5034522;28;19913;-58
2022/10/02 03:20:43;;;;;;;;;;;;;;;;;;5036452;28;19913;-57
2022/10/02 03:23:21;;;;;;;;;;;;;;;;;;5032098;28;19920;-57
2022/10/02 03:26:04;;;;;;;;;;;;;;;;;;5026921;28;19913;-57
2022/10/02 03:28:35;;;;;;;;;;;;;;;;;;5029531;28;19912;-57
2022/10/02 03:31:01;;;;;;;;;;;;;;;;;;5027957;28;19917;-57
2022/10/02 03:33:28;;;;;;;;;;;;;;;;;;5028568;28;19920;-57
2022/10/02 03:35:54;;;;;;;;;;;;;;;;;;5031167;28;19935;-57
2022/10/02 03:38:20;;;;;;;;;;;;;;;;;;5029343;28;19913;-57
2022/10/02 03:40:45;;;;;;;;;;;;;;;;;;5029382;28;19944;-57
2022/10/02 03:43:17;;;;;;;;;;;;;;;;;;5032963;28;19913;-57
2022/10/02 03:45:42;;;;;;;;;;;;;;;;;;5028009;28;19913;-57
2022/10/02 03:48:07;;;;;;;;;;;;;;;;;;5035096;28;19994;-57
2022/10/02 03:50:33;;;;;;;;;;;;;;;;;;5028988;28;19924;-57
2022/10/02 03:52:58;;;;;;;;;;;;;;;;;;5032022;28;20434;-57
2022/10/02 03:55:31;;;;;;;;;;;;;;;;;;5033780;28;19923;-57
2022/10/02 03:57:57;;;;;;;;;;;;;;;;;;5031303;28;19990;-57
2022/10/02 04:00:27;;;;;;;;;;;;;;;;;;5034377;28;20339;-57
2022/10/02 04:02:58;;;;;;;;;;;;;;;;;;5031393;28;19924;-57
2022/10/02 04:05:41;;;;;;;;;;;;;;;;;;5028932;28;19917;-57
2022/10/02 04:08:15;;;;;;;;;;;;;;;;;;5027992;28;19967;-57
2022/10/02 04:10:49;;;;;;;;;;;;;;;;;;5034760;28;19921;-57
2022/10/02 04:13:14;;;;;;;;;;;;;;;;;;5058061;28;20274;-57
2022/10/02 04:15:44;;;;;;;;;;;;;;;;;;5029568;28;19921;-57
2022/10/02 04:18:14;;;;;;;;;;;;;;;;;;5029000;28;19920;-57
2022/10/02 04:20:40;;;;;;;;;;;;;;;;;;5031580;28;19913;-57
2022/10/02 04:23:11;;;;;;;;;;;;;;;;;;5029497;28;19951;-57
2022/10/02 04:25:40;;;;;;;;;;;;;;;;;;5029377;28;19921;-58
2022/10/02 04:28:10;;;;;;;;;;;;;;;;;;5027594;28;19917;-57
2022/10/02 04:30:35;;;;;;;;;;;;;;;;;;5032415;28;19924;-58
2022/10/02 04:33:08;;;;;;;;;;;;;;;;;;5031246;28;19913;-57
2022/10/02 04:35:46;;;;;;;;;;;;;;;;;;5034773;28;19931;-57
2022/10/02 04:38:17;;;;;;;;;;;;;;;;;;5031795;28;20386;-57
2022/10/02 04:40:49;;;;;;;;;;;;;;;;;;5033605;28;19932;-57
2022/10/02 04:43:17;;;;;;;;;;;;;;;;;;5033339;28;19917;-57
2022/10/02 04:45:48;;;;;;;;;;;;;;;;;;5032884;28;19987;-57
2022/10/02 04:48:19;;;;;;;;;;;;;;;;;;5034136;28;19921;-57
2022/10/02 04:50:51;;;;;;;;;;;;;;;;;;5032162;28;19921;-58
2022/10/02 04:53:35;;;;;;;;;;;;;;;;;;5032569;28;19913;-57
2022/10/02 04:56:00;;;;;;;;;;;;;;;;;;5030791;28;20387;-57
2022/10/02 04:58:40;;;;;;;;;;;;;;;;;;5033731;28;19921;-57
2022/10/02 05:01:11;;;;;;;;;;;;;;;;;;5032032;28;20375;-57
2022/10/02 05:03:55;;;;;;;;;;;;;;;;;;5036398;28;19913;-61
2022/10/02 05:06:21;;;;;;;;;;;;;;;;;;5031284;28;20387;-59
2022/10/02 05:08:49;;;;;;;;;;;;;;;;;;5039109;28;19956;-60
2022/10/02 05:11:14;;;;;;;;;;;;;;;;;;5025799;28;19917;-60
2022/10/02 05:13:58;;;;;;;;;;;;;;;;;;5032053;28;19959;-60
2022/10/02 05:16:26;;;;;;;;;;;;;;;;;;5028408;28;19963;-59
2022/10/02 05:18:59;;;;;;;;;;;;;;;;;;5032111;28;19913;-59
2022/10/02 05:21:39;;;;;;;;;;;;;;;;;;5032259;28;20000;-59
2022/10/02 05:24:23;;;;;;;;;;;;;;;;;;5031065;28;19917;-59
2022/10/02 05:26:54;;;;;;;;;;;;;;;;;;5029936;28;21048;-59
2022/10/02 05:29:27;;;;;;;;;;;;;;;;;;5032449;28;20347;-59
2022/10/02 05:32:01;;;;;;;;;;;;;;;;;;5031992;28;19920;-59
2022/10/02 05:34:47;;;;;;;;;;;;;;;;;;5032902;28;19920;-59
2022/10/02 05:37:27;;;;;;;;;;;;;;;;;;5017657;28;19913;-59
2022/10/02 05:39:55;;;;;;;;;;;;;;;;;;5035223;28;19913;-59
2022/10/02 05:42:24;;;;;;;;;;;;;;;;;;5031935;28;20039;-59
2022/10/02 05:45:00;;;;;;;;;;;;;;;;;;5033305;28;19912;-59
2022/10/02 05:47:29;;;;;;;;;;;;;;;;;;5032201;28;19913;-59
2022/10/02 05:49:57;;;;;;;;;;;;;;;;;;5030680;28;19956;-59
2022/10/02 05:52:24;;;;;;;;;;;;;;;;;;5030649;28;19917;-59
2022/10/02 05:55:13;;;;;;;;;;;;;;;;;;5030379;28;19959;-59
2022/10/02 05:57:41;;;;;;;;;;;;;;;;;;5030650;28;20438;-59
2022/10/02 06:00:23;;;;;;;;;;;;;;;;;;5030185;28;20288;-59
2022/10/02 06:02:51;;;;;;;;;;;;;;;;;;5030114;28;20359;-59
2022/10/02 06:05:19;;;;;;;;;;;;;;;;;;5033548;28;19962;-59
2022/10/02 06:07:47;;;;;;;;;;;;;;;;;;5037891;28;19967;-59
2022/10/02 06:10:20;;;;;;;;;;;;;;;;;;5029192;28;19917;-59
2022/10/02 06:12:51;;;;;;;;;;;;;;;;;;5035351;28;19912;-59
2022/10/02 06:15:28;;;;;;;;;;;;;;;;;;5025029;28;19913;-58
2022/10/02 06:17:58;;;;;;;;;;;;;;;;;;5032891;28;20410;-59
2022/10/02 06:20:39;;;;;;;;;;;;;;;;;;5032507;28;19917;-59
2022/10/02 06:23:23;;;;;;;;;;;;;;;;;;5029265;28;19917;-58
2022/10/02 06:25:48;;;;;;;;;;;;;;;;;;5028366;28;20438;-59
2022/10/02 06:28:24;;;;;;;;;;;;;;;;;;5029335;28;20004;-58
2022/10/02 06:30:51;;;;;;;;;;;;;;;;;;5032418;28;19960;-58
2022/10/02 06:33:16;;;;;;;;;;;;;;;;;;5030087;28;19975;-58
2022/10/02 06:35:42;;;;;;;;;;;;;;;;;;5030800;28;20412;-59
2022/10/02 06:38:11;;;;;;;;;;;;;;;;;;5032414;28;19917;-59
2022/10/02 06:40:37;;;;;;;;;;;;;;;;;;5032099;28;20302;-58
2022/10/02 06:43:13;;;;;;;;;;;;;;;;;;5031123;28;19912;-58
2022/10/02 06:46:07;;;;;;;;;;;;;;;;;;5028364;28;19988;-58
2022/10/02 06:48:39;;;;;;;;;;;;;;;;;;4977529;28;19921;-58
2022/10/02 06:51:10;;;;;;;;;;;;;;;;;;5029830;28;19925;-59
2022/10/02 06:53:35;;;;;;;;;;;;;;;;;;5032962;28;20413;-59
2022/10/02 06:56:00;;;;;;;;;;;;;;;;;;5031356;28;19912;-59
2022/10/02 06:58:25;;;;;;;;;;;;;;;;;;5034989;28;19919;-58
2022/10/02 07:00:54;;;;;;;;;;;;;;;;;;5030688;28;19990;-59
2022/10/02 07:03:22;;;;;;;;;;;;;;;;;;5028816;28;19967;-58
2022/10/02 07:06:06;;;;;;;;;;;;;;;;;;5034573;28;19932;-59
2022/10/02 07:08:52;;;;;;;;;;;;;;;;;;5031709;28;19913;-59
2022/10/02 07:11:31;;;;;;;;;;;;;;;;;;5039699;28;19917;-59
2022/10/02 07:14:11;;;;;;;;;;;;;;;;;;5035510;28;19955;-59
2022/10/02 07:16:37;;;;;;;;;;;;;;;;;;5029450;28;20437;-59
2022/10/02 07:19:02;;;;;;;;;;;;;;;;;;5030812;28;20007;-59
2022/10/02 07:21:46;;;;;;;;;;;;;;;;;;5036157;28;20306;-59
2022/10/02 07:24:25;;;;;;;;;;;;;;;;;;5025482;28;19971;-59
2022/10/02 07:26:54;;;;;;;;;;;;;;;;;;5027441;28;20401;-59
2022/10/02 07:29:25;;;;;;;;;;;;;;;;;;5029228;28;19913;-59
2022/10/02 07:31:59;;;;;;;;;;;;;;;;;;5028904;28;19923;-59
2022/10/02 07:34:43;;;;;;;;;;;;;;;;;;5028579;28;19921;-59
2022/10/02 07:37:08;;;;;;;;;;;;;;;;;;5036466;28;19913;-59
2022/10/02 07:39:52;;;;;;;;;;;;;;;;;;5030246;28;19943;-60
2022/10/02 07:42:18;;;;;;;;;;;;;;;;;;5042193;28;19920;-60
2022/10/02 07:44:46;;;;;;;;;;;;;;;;;;5029754;28;19913;-59
2022/10/02 07:47:26;;;;;;;;;;;;;;;;;;5028608;28;20040;-59
2022/10/02 07:50:11;;;;;;;;;;;;;;;;;;5033722;28;19921;-60
2022/10/02 07:52:48;;;;;;;;;;;;;;;;;;5029744;28;19916;-59
2022/10/02 07:55:23;;;;;;;;;;;;;;;;;;5032108;28;20389;-60
2022/10/02 07:58:02;;;;;;;;;;;;;;;;;;5029246;28;19917;-60
2022/10/02 08:00:29;;;;;;;;;;;;;;;;;;5029388;28;20012;-59
2022/10/02 08:03:03;;;;;;;;;;;;;;;;;;5028019;28;20410;-60
2022/10/02 08:05:31;;;;;;;;;;;;;;;;;;5033963;28;19913;-60
2022/10/02 08:08:01;;;;;;;;;;;;;;;;;;5035659;28;19913;-60
2022/10/02 08:10:30;;;;;;;;;;;;;;;;;;5036123;28;19966;-60
2022/10/02 08:13:02;;;;;;;;;;;;;;;;;;5035620;28;19928;-59
2022/10/02 08:15:30;;;;;;;;;;;;;;;;;;5034018;28;19920;-59
2022/10/02 08:17:57;;;;;;;;;;;;;;;;;;5033633;28;19970;-60
2022/10/02 08:20:35;;;;;;;;;;;;;;;;;;5030738;28;19913;-60
2022/10/02 08:23:03;;;;;;;;;;;;;;;;;;5033228;28;20016;-60
2022/10/02 08:25:32;;;;;;;;;;;;;;;;;;5029456;28;19920;-59
2022/10/02 08:28:10;;;;;;;;;;;;;;;;;;5033220;28;19913;-60
2022/10/02 08:30:35;;;;;;;;;;;;;;;;;;5031135;28;19963;-59
2022/10/02 08:33:01;;;;;;;;;;;;;;;;;;5030914;28;19917;-58
2022/10/02 08:35:40;;;;;;;;;;;;;;;;;;5030654;28;19916;-59
2022/10/02 08:38:45;;;;;;;;;;;;;;;;;;5030563;28;19920;-59
2022/10/02 08:41:35;;;;;;;;;;;;;;;;;;4987580;28;20423;-59
2022/10/02 08:44:20;;;;;;;;;;;;;;;;;;4983229;28;20342;-59
2022/10/02 08:46:55;;;;;;;;;;;;;;;;;;5020894;28;20386;-59
2022/10/02 08:49:39;;;;;;;;;;;;;;;;;;5039419;28;19917;-59
2022/10/02 08:52:10;;;;;;;;;;;;;;;;;;5034597;28;20016;-59
2022/10/02 08:54:37;;;;;;;;;;;;;;;;;;5037264;28;20425;-59
2022/10/02 08:57:11;;;;;;;;;;;;;;;;;;5035258;28;19950;-60
2022/10/02 08:59:40;;;;;;;;;;;;;;;;;;5028916;28;19975;-59
2022/10/02 09:02:08;;;;;;;;;;;;;;;;;;5029732;28;20309;-59
2022/10/02 09:04:36;;;;;;;;;;;;;;;;;;5040013;28;20277;-59
2022/10/02 09:07:21;;;;;;;;;;;;;;;;;;5033029;28;19908;-59
2022/10/02 09:09:46;;;;;;;;;;;;;;;;;;5033737;28;19913;-59
2022/10/02 09:12:44;;;;;;;;;;;;;;;;;;5039545;28;20374;-59
2022/10/02 09:15:24;;;;;;;;;;;;;;;;;;5003668;28;19913;-59
2022/10/02 09:17:55;;;;;;;;;;;;;;;;;;5029769;28;19924;-59
2022/10/02 09:20:39;;;;;;;;;;;;;;;;;;5031466;28;19959;-59
2022/10/02 09:23:04;;;;;;;;;;;;;;;;;;5027872;28;19917;-59
2022/10/02 09:25:36;;;;;;;;;;;;;;;;;;5030448;28;19963;-59
2022/10/02 09:28:20;;;;;;;;;;;;;;;;;;5032107;28;19913;-59
2022/10/02 09:31:02;;;;;;;;;;;;;;;;;;5032433;28;20365;-59
2022/10/02 09:33:27;;;;;;;;;;;;;;;;;;5035816;28;20344;-59
2022/10/02 09:36:05;;;;;;;;;;;;;;;;;;5032518;28;20007;-59
2022/10/02 09:38:48;;;;;;;;;;;;;;;;;;5036074;28;20019;-59
2022/10/02 09:41:14;;;;;;;;;;;;;;;;;;5030481;28;19913;-59
2022/10/02 09:43:49;;;;;;;;;;;;;;;;;;5034775;28;19908;-59
2022/10/02 09:46:33;;;;;;;;;;;;;;;;;;5030414;28;19974;-59
2022/10/02 09:49:07;;;;;;;;;;;;;;;;;;5031292;28;20016;-59
2022/10/02 09:51:41;;;;;;;;;;;;;;;;;;5028825;28;19963;-59
2022/10/02 09:54:35;;;;;;;;;;;;;;;;;;5031615;28;19913;-59
2022/10/02 09:57:18;;;;;;;;;;;;;;;;;;5033094;28;19919;-59
2022/10/02 09:59:54;;;;;;;;;;;;;;;;;;5030355;28;20309;-59
2022/10/02 10:02:37;;;;;;;;;;;;;;;;;;5030056;28;19917;-58
2022/10/02 10:05:21;;;;;;;;;;;;;;;;;;5031784;28;19920;-58
2022/10/02 10:08:12;;;;;;;;;;;;;;;;;;5031907;28;19913;-58
2022/10/02 10:10:41;;;;;;;;;;;;;;;;;;5019887;28;20370;-58
2022/10/02 10:13:21;;;;;;;;;;;;;;;;;;5030106;28;19912;-58
2022/10/02 10:16:05;;;;;;;;;;;;;;;;;;5030620;28;19944;-58
2022/10/02 10:18:48;;;;;;;;;;;;;;;;;;5028832;28;20246;-58
2022/10/02 10:21:22;;;;;;;;;;;;;;;;;;5025952;28;19920;-58
2022/10/02 10:23:50;;;;;;;;;;;;;;;;;;5030215;28;20279;-58
2022/10/02 10:26:34;;;;;;;;;;;;;;;;;;5029594;28;19917;-57
2022/10/02 10:29:07;;;;;;;;;;;;;;;;;;5029754;28;19912;-59
2022/10/02 10:31:36;;;;;;;;;;;;;;;;;;5030845;28;19924;-59
2022/10/02 10:34:20;;;;;;;;;;;;;;;;;;5030290;28;19931;-59
2022/10/02 10:39:52;;;;;;;;;;;;;;;;;;5029729;28;19920;-59
2022/10/02 10:42:41;;;;;;;;;;;;;;;;;;5030233;28;19920;-59
2022/10/02 10:45:07;;;;;;;;;;;;;;;;;;5033090;28;19987;-59
2022/10/02 10:47:45;;;;;;;;;;;;;;;;;;5031289;28;20007;-59
2022/10/02 10:50:16;;;;;;;;;;;;;;;;;;5033252;28;19913;-59
2022/10/02 10:52:41;;;;;;;;;;;;;;;;;;5027723;28;19917;-60
2022/10/02 10:55:10;;;;;;;;;;;;;;;;;;5033732;28;19913;-58
2022/10/02 10:57:41;;;;;;;;;;;;;;;;;;5031474;28;20370;-59
2022/10/02 11:00:18;;;;;;;;;;;;;;;;;;5033517;28;19958;-59
2022/10/02 11:02:53;;;;;;;;;;;;;;;;;;5035488;28;19967;-59
2022/10/02 11:05:38;;;;;;;;;;;;;;;;;;5029576;28;19943;-59
2022/10/02 11:08:04;;;;;;;;;;;;;;;;;;5030854;28;19913;-59
2022/10/02 11:10:32;;;;;;;;;;;;;;;;;;5027306;28;20383;-59
2022/10/02 11:13:13;;;;;;;;;;;;;;;;;;5023381;28;20505;-59
2022/10/02 11:15:41;;;;;;;;;;;;;;;;;;5026432;28;19920;-59
2022/10/02 11:18:11;;;;;;;;;;;;;;;;;;5026790;28;20007;-59
2022/10/02 11:20:46;;;;;;;;;;;;;;;;;;5025069;28;19917;-59
2022/10/02 11:23:11;;;;;;;;;;;;;;;;;;5025718;28;19917;-59
2022/10/02 11:25:36;;;;;;;;;;;;;;;;;;5027114;28;20354;-59
2022/10/02 11:28:11;;;;;;;;;;;;;;;;;;5027987;28;19913;-59
2022/10/02 11:30:45;;;;;;;;;;;;;;;;;;5030467;28;19936;-59
2022/10/02 11:33:10;;;;;;;;;;;;;;;;;;5028327;28;19913;-60
2022/10/02 11:35:47;;;;;;;;;;;;;;;;;;5033722;28;19913;-59
2022/10/02 11:38:22;;;;;;;;;;;;;;;;;;5028348;28;19982;-59
2022/10/02 11:41:06;;;;;;;;;;;;;;;;;;5030086;28;20357;-60
2022/10/02 11:43:51;;;;;;;;;;;;;;;;;;5029297;28;20146;-60
2022/10/02 11:46:36;;;;;;;;;;;;;;;;;;5027061;28;20004;-60
2022/10/02 11:49:27;;;;;;;;;;;;;;;;;;5026739;28;19924;-59
2022/10/02 11:51:52;;;;;;;;;;;;;;;;;;5029039;28;20375;-59
2022/10/02 11:54:30;;;;;;;;;;;;;;;;;;5027520;28;19920;-59
2022/10/02 11:57:16;;;;;;;;;;;;;;;;;;5028436;28;20382;-60
2022/10/02 12:00:03;;;;;;;;;;;;;;;;;;5030699;28;19916;-59
2022/10/02 12:02:40;;;;;;;;;;;;;;;;;;5024547;28;20027;-59
2022/10/02 12:05:07;;;;;;;;;;;;;;;;;;5025998;28;19991;-59
2022/10/02 12:07:51;;;;;;;;;;;;;;;;;;5032468;28;20366;-60
2022/10/02 12:10:16;;;;;;;;;;;;;;;;;;5034308;28;19931;-59
2022/10/02 12:12:50;;;;;;;;;;;;;;;;;;5027650;28;19917;-59
2022/10/02 12:15:32;;;;;;;;;;;;;;;;;;5033129;28;19917;-59
2022/10/02 12:17:57;;;;;;;;;;;;;;;;;;5028067;28;19959;-59
2022/10/02 12:26:59;;;;;;;;;;;;;;;;;;5023178;28;19959;-59
2022/10/02 12:29:24;;;;;;;;;;;;;;;;;;5030647;28;19920;-59
2022/10/02 12:32:08;;;;;;;;;;;;;;;;;;5029185;28;20291;-59
2022/10/02 12:34:48;;;;;;;;;;;;;;;;;;5032514;28;19932;-59
2022/10/02 12:37:14;;;;;;;;;;;;;;;;;;5030134;28;19919;-59
2022/10/02 12:39:42;;;;;;;;;;;;;;;;;;5034174;28;19917;-59
2022/10/02 12:42:18;;;;;;;;;;;;;;;;;;5026364;28;19913;-59
2022/10/02 12:45:04;;;;;;;;;;;;;;;;;;5025235;28;20298;-60
2022/10/02 12:47:30;;;;;;;;;;;;;;;;;;5026721;28;19921;-60
2022/10/02 12:50:03;;;;;;;;;;;;;;;;;;5033529;28;19913;-61
2022/10/02 12:52:49;;;;;;;;;;;;;;;;;;5029036;28;19928;-62
2022/10/02 12:55:14;;;;;;;;;;;;;;;;;;5036227;28;20130;-63
2022/10/02 12:57:55;;;;;;;;;;;;;;;;;;5031838;28;19913;-63
2022/10/02 13:00:29;;;;;;;;;;;;;;;;;;5030608;28;19916;-62
2022/10/02 13:03:10;;;;;;;;;;;;;;;;;;5033283;28;20402;-62
2022/10/02 13:05:42;;;;;;;;;;;;;;;;;;5034430;28;19979;-62
2022/10/02 13:08:26;;;;;;;;;;;;;;;;;;5031640;28;19958;-62
2022/10/02 13:10:59;;;;;;;;;;;;;;;;;;5031442;28;19936;-62
2022/10/02 13:13:24;;;;;;;;;;;;;;;;;;5027944;28;20122;-62
2022/10/02 13:15:53;;;;;;;;;;;;;;;;;;5028917;28;19917;-61
2022/10/02 13:18:25;;;;;;;;;;;;;;;;;;5032613;28;19956;-62
2022/10/02 13:21:03;;;;;;;;;;;;;;;;;;5026909;28;19916;-61
2022/10/02 13:23:41;;;;;;;;;;;;;;;;;;5028559;28;19935;-61
2022/10/02 13:26:12;;;;;;;;;;;;;;;;;;5027768;28;19913;-62
2022/10/02 13:28:49;;;;;;;;;;;;;;;;;;5031693;28;19920;-62
2022/10/02 13:31:14;;;;;;;;;;;;;;;;;;5029596;28;20069;-62
2022/10/02 13:34:00;;;;;;;;;;;;;;;;;;5031831;28;20379;-65
2022/10/02 13:36:43;;;;;;;;;;;;;;;;;;5033464;28;19917;-62
2022/10/02 13:39:17;;;;;;;;;;;;;;;;;;5032140;28;19912;-62
2022/10/02 13:41:42;;;;;;;;;;;;;;;;;;5029058;28;21451;-61
2022/10/02 13:44:17;;;;;;;;;;;;;;;;;;5029094;28;19920;-61
2022/10/02 13:46:52;;;;;;;;;;;;;;;;;;5032019;28;19920;-61
2022/10/02 13:49:29;;;;;;;;;;;;;;;;;;5035553;28;19912;-61
2022/10/02 13:52:01;;;;;;;;;;;;;;;;;;5029975;28;20513;-61
2022/10/02 13:54:49;;;;;;;;;;;;;;;;;;5031563;28;19913;-60
2022/10/02 13:57:32;;;;;;;;;;;;;;;;;;5032509;28;20361;-60
2022/10/02 14:00:09;;;;;;;;;;;;;;;;;;5029593;28;20382;-60
2022/10/02 14:02:49;;;;;;;;;;;;;;;;;;5030396;28;19921;-60
2022/10/02 14:05:26;;;;;;;;;;;;;;;;;;5033716;28;20473;-60
2022/10/02 14:08:12;;;;;;;;;;;;;;;;;;5029295;28;19913;-60
2022/10/02 14:10:51;;;;;;;;;;;;;;;;;;5024317;28;20374;-60
2022/10/02 14:13:34;;;;;;;;;;;;;;;;;;5028190;28;19967;-60
2022/10/02 14:16:02;;;;;;;;;;;;;;;;;;5036804;28;19913;-60
2022/10/02 14:18:35;;;;;;;;;;;;;;;;;;5033109;28;19913;-60
2022/10/02 14:21:20;;;;;;;;;;;;;;;;;;5036263;28;20004;-60
2022/10/02 14:24:15;;;;;;;;;;;;;;;;;;5021131;28;19919;-60
2022/10/02 14:26:52;;;;;;;;;;;;;;;;;;4986385;28;19925;-60
2022/10/02 14:29:25;;;;;;;;;;;;;;;;;;5028510;28;20401;-60
2022/10/02 14:32:26;;;;;;;;;;;;;;;;;;5045852;28;19917;-60
2022/10/02 14:34:54;;;;;;;;;;;;;;;;;;5013197;28;19914;-59
2022/10/02 14:37:34;;;;;;;;;;;;;;;;;;5033048;28;20148;-60
2022/10/02 14:40:01;;;;;;;;;;;;;;;;;;5030856;28;19935;-61
2022/10/02 14:42:27;;;;;;;;;;;;;;;;;;5031919;28;20290;-61
2022/10/02 14:45:11;;;;;;;;;;;;;;;;;;5028675;28;20111;-61
2022/10/02 14:47:54;;;;;;;;;;;;;;;;;;5029024;28;20366;-60
2022/10/02 14:50:48;;;;;;;;;;;;;;;;;;5028886;28;19967;-61
2022/10/02 14:53:28;;;;;;;;;;;;;;;;;;5014228;28;19952;-61
2022/10/02 14:56:12;;;;;;;;;;;;;;;;;;5030910;28;20553;-61
2022/10/02 14:58:41;;;;;;;;;;;;;;;;;;5028464;28;19924;-61
2022/10/02 15:01:23;;;;;;;;;;;;;;;;;;5030606;28;19932;-61
2022/10/02 15:03:54;;;;;;;;;;;;;;;;;;5034478;28;20310;-62
2022/10/02 15:06:37;;;;;;;;;;;;;;;;;;5036453;28;19913;-61
2022/10/02 15:09:12;;;;;;;;;;;;;;;;;;5033822;28;20394;-61
2022/10/02 15:11:38;;;;;;;;;;;;;;;;;;5029159;28;19921;-61
2022/10/02 15:14:17;;;;;;;;;;;;;;;;;;5027135;28;20000;-61
2022/10/02 15:19:38;;;;;;;;;;;;;;;;;;5028462;28;19920;-61
2022/10/02 15:22:07;;;;;;;;;;;;;;;;;;5030857;28;19944;-61
2022/10/02 15:24:38;;;;;;;;;;;;;;;;;;5030041;28;20003;-62
2022/10/02 15:27:07;;;;;;;;;;;;;;;;;;5035450;28;19913;-61
2022/10/02 15:29:35;;;;;;;;;;;;;;;;;;5030321;28;20335;-62
2022/10/02 15:32:26;;;;;;;;;;;;;;;;;;5026857;28;19921;-62
2022/10/02 15:35:07;;;;;;;;;;;;;;;;;;5025200;28;20409;-61
2022/10/02 15:37:41;;;;;;;;;;;;;;;;;;5027422;28;20347;-61
2022/10/02 15:40:09;;;;;;;;;;;;;;;;;;5030322;28;19959;-61
2022/10/02 15:42:55;;;;;;;;;;;;;;;;;;5032390;28;19924;-61
2022/10/02 15:45:34;;;;;;;;;;;;;;;;;;5029292;28;19979;-61
2022/10/02 15:48:18;;;;;;;;;;;;;;;;;;5029203;28;19979;-62
2022/10/02 15:50:46;;;;;;;;;;;;;;;;;;5030536;28;19951;-61
2022/10/02 15:53:21;;;;;;;;;;;;;;;;;;5027887;28;19924;-61
2022/10/02 15:55:54;;;;;;;;;;;;;;;;;;5029021;28;20246;-61
2022/10/02 15:58:23;;;;;;;;;;;;;;;;;;5029210;28;19931;-61
2022/10/02 16:01:00;;;;;;;;;;;;;;;;;;5028730;28;19924;-61
2022/10/02 16:03:46;;;;;;;;;;;;;;;;;;5026014;28;20170;-60
2022/10/02 16:06:30;;;;;;;;;;;;;;;;;;5023864;28;19924;-60
2022/10/02 16:08:55;;;;;;;;;;;;;;;;;;5034254;28;20378;-61
2022/10/02 16:11:36;;;;;;;;;;;;;;;;;;5032497;28;19924;-60
2022/10/02 16:14:08;;;;;;;;;;;;;;;;;;5027466;28;20286;-61
2022/10/02 16:16:33;;;;;;;;;;;;;;;;;;5028397;28;19913;-61
2022/10/02 16:19:04;;;;;;;;;;;;;;;;;;5029445;28;19920;-60
2022/10/02 16:21:48;;;;;;;;;;;;;;;;;;5027815;28;20382;-61
2022/10/02 16:24:16;;;;;;;;;;;;;;;;;;5029586;28;19920;-61
2022/10/02 16:26:59;;;;;;;;;;;;;;;;;;5031162;28;20038;-61
2022/10/02 16:29:33;;;;;;;;;;;;;;;;;;5031230;28;19916;-61
2022/10/02 16:32:17;;;;;;;;;;;;;;;;;;5033124;28;19917;-61
2022/10/02 16:34:45;;;;;;;;;;;;;;;;;;5035129;28;19966;-61
2022/10/02 16:37:33;;;;;;;;;;;;;;;;;;5034380;28;19948;-62
2022/10/02 16:39:59;;;;;;;;;;;;;;;;;;5034962;28;19920;-61
2022/10/02 16:42:31;;;;;;;;;;;;;;;;;;5040120;28;19923;-61
2022/10/02 16:45:14;;;;;;;;;;;;;;;;;;5029689;28;19923;-61
2022/10/02 16:47:54;;;;;;;;;;;;;;;;;;5031411;28;19920;-61
2022/10/02 16:50:23;;;;;;;;;;;;;;;;;;5039817;28;19919;-61
2022/10/02 16:52:56;;;;;;;;;;;;;;;;;;5036864;28;19924;-62
2022/10/02 16:55:32;;;;;;;;;;;;;;;;;;5032484;28;19917;-61
2022/10/02 16:58:04;;;;;;;;;;;;;;;;;;5031865;28;19920;-62
2022/10/02 17:00:29;;;;;;;;;;;;;;;;;;5032589;28;19913;-62
2022/10/02 17:02:59;;;;;;;;;;;;;;;;;;5031875;28;19974;-62
2022/10/02 17:05:25;;;;;;;;;;;;;;;;;;5031912;28;20546;-62
2022/10/02 17:07:59;;;;;;;;;;;;;;;;;;5031701;28;19913;-62
2022/10/02 17:10:27;;;;;;;;;;;;;;;;;;5034753;28;19924;-62
2022/10/02 17:13:05;;;;;;;;;;;;;;;;;;5030626;28;19917;-62
2022/10/02 17:15:33;;;;;;;;;;;;;;;;;;5028251;28;20044;-62
2022/10/02 17:18:12;;;;;;;;;;;;;;;;;;5031797;28;19913;-62
2022/10/02 17:20:47;;;;;;;;;;;;;;;;;;5033467;28;19948;-62
2022/10/02 17:23:12;;;;;;;;;;;;;;;;;;5031955;28;20174;-61
2022/10/02 17:26:00;;;;;;;;;;;;;;;;;;5032122;28;19921;-62
2022/10/02 17:28:43;;;;;;;;;;;;;;;;;;5023324;28;19920;-62
2022/10/02 17:31:24;;;;;;;;;;;;;;;;;;5026977;28;19924;-62
2022/10/02 17:33:51;;;;;;;;;;;;;;;;;;5035004;28;19916;-59
2022/10/02 17:36:19;;;;;;;;;;;;;;;;;;5033748;28;19909;-59
2022/10/02 17:38:44;;;;;;;;;;;;;;;;;;5035569;28;19984;-62
2022/10/02 17:41:30;;;;;;;;;;;;;;;;;;5027447;28;19939;-61
2022/10/02 17:44:32;;;;;;;;;;;;;;;;;;5027277;28;19917;-62